sensor_id;sensor_type;location;lat;lon;timestamp;pressure;altitude;pressure_sealevel;temperature;humidity
65659;BME280;60181;53.258;6.932;2022-12-05T00:01:24;102184.58;;;14.15;62.09
65659;BME280;60181;53.258;6.932;2022-12-05T00:05:44;102181.66;;;14.14;62.08
65659;BME280;60181;53.258;6.932;2022-12-05T00:10:12;102178.77;;;14.13;62.14
65659;BME280;60181;53.258;6.932;2022-12-05T00:14:40;102174.94;;;14.13;62.19
65659;BME280;60181;53.258;6.932;2022-12-05T00:19:09;102172.63;;;14.12;62.30
65659;BME280;60181;53.258;6.932;2022-12-05T00:23:36;102170.40;;;14.12;62.77
65659;BME280;60181;53.258;6.932;2022-12-05T00:28:04;102167.49;;;14.12;62.96
65659;BME280;60181;53.258;6.932;2022-12-05T00:32:32;102165.84;;;14.11;62.96
65659;BME280;60181;53.258;6.932;2022-12-05T00:37:00;102164.84;;;14.11;62.99
65659;BME280;60181;53.258;6.932;2022-12-05T00:41:29;102162.17;;;14.11;62.58
65659;BME280;60181;53.258;6.932;2022-12-05T00:45:59;102161.19;;;14.11;62.77
65659;BME280;60181;53.258;6.932;2022-12-05T00:50:24;102160.36;;;14.11;63.20
65659;BME280;60181;53.258;6.932;2022-12-05T00:54:52;102159.12;;;14.10;63.23
65659;BME280;60181;53.258;6.932;2022-12-05T00:59:20;102158.22;;;14.10;63.33
65659;BME280;60181;53.258;6.932;2022-12-05T01:03:50;102157.72;;;14.10;63.67
65659;BME280;60181;53.258;6.932;2022-12-05T01:08:16;102156.98;;;14.10;63.79
65659;BME280;60181;53.258;6.932;2022-12-05T01:12:44;102156.70;;;14.10;64.06
65659;BME280;60181;53.258;6.932;2022-12-05T01:17:12;102156.45;;;14.09;64.03
65659;BME280;60181;53.258;6.932;2022-12-05T01:21:40;102157.76;;;14.09;64.13
65659;BME280;60181;53.258;6.932;2022-12-05T01:26:09;102158.42;;;14.09;64.20
65659;BME280;60181;53.258;6.932;2022-12-05T01:30:40;102159.95;;;14.08;63.90
65659;BME280;60181;53.258;6.932;2022-12-05T01:35:05;102161.31;;;14.07;64.13
65659;BME280;60181;53.258;6.932;2022-12-05T01:39:32;102163.20;;;14.07;64.24
65659;BME280;60181;53.258;6.932;2022-12-05T01:44:02;102164.08;;;14.06;64.02
65659;BME280;60181;53.258;6.932;2022-12-05T01:48:29;102164.62;;;14.05;64.17
65659;BME280;60181;53.258;6.932;2022-12-05T01:52:57;102165.19;;;14.04;64.20
65659;BME280;60181;53.258;6.932;2022-12-05T01:57:24;102165.08;;;14.04;63.85
65659;BME280;60181;53.258;6.932;2022-12-05T02:01:52;102163.72;;;14.03;63.96
65659;BME280;60181;53.258;6.932;2022-12-05T02:06:20;102162.64;;;14.02;64.05
65659;BME280;60181;53.258;6.932;2022-12-05T02:10:49;102161.41;;;14.02;63.54
65659;BME280;60181;53.258;6.932;2022-12-05T02:24:36;102154.03;;;14.03;63.73
65659;BME280;60181;53.258;6.932;2022-12-05T02:37:41;102146.86;;;14.03;63.66
65659;BME280;60181;53.258;6.932;2022-12-05T02:42:08;102146.58;;;14.03;63.78
65659;BME280;60181;53.258;6.932;2022-12-05T02:46:33;102146.98;;;14.03;63.70
65659;BME280;60181;53.258;6.932;2022-12-05T02:51:00;102146.91;;;14.02;63.84
65659;BME280;60181;53.258;6.932;2022-12-05T02:55:28;102148.14;;;14.03;64.06
65659;BME280;60181;53.258;6.932;2022-12-05T02:59:56;102149.66;;;14.03;63.94
65659;BME280;60181;53.258;6.932;2022-12-05T03:04:24;102151.79;;;14.03;63.99
65659;BME280;60181;53.258;6.932;2022-12-05T03:09:10;102152.29;;;14.03;64.25
65659;BME280;60181;53.258;6.932;2022-12-05T03:13:22;102153.13;;;14.03;64.67
65659;BME280;60181;53.258;6.932;2022-12-05T03:17:58;102153.50;;;14.03;64.46
65659;BME280;60181;53.258;6.932;2022-12-05T03:22:26;102153.09;;;14.02;64.50
65659;BME280;60181;53.258;6.932;2022-12-05T03:26:59;102153.13;;;14.01;64.51
65659;BME280;60181;53.258;6.932;2022-12-05T03:31:13;102153.83;;;14.01;64.41
65659;BME280;60181;53.258;6.932;2022-12-05T03:44:42;102151.73;;;13.96;64.89
65659;BME280;60181;53.258;6.932;2022-12-05T03:53:34;102150.72;;;13.89;65.01
65659;BME280;60181;53.258;6.932;2022-12-05T03:58:01;102149.94;;;13.86;65.10
65659;BME280;60181;53.258;6.932;2022-12-05T04:06:56;102149.00;;;13.80;64.92
65659;BME280;60181;53.258;6.932;2022-12-05T04:11:25;102148.60;;;13.78;65.00
65659;BME280;60181;53.258;6.932;2022-12-05T04:15:54;102148.71;;;13.76;64.98
65659;BME280;60181;53.258;6.932;2022-12-05T04:20:21;102148.80;;;13.74;64.85
65659;BME280;60181;53.258;6.932;2022-12-05T04:24:48;102150.86;;;13.73;64.79
65659;BME280;60181;53.258;6.932;2022-12-05T04:29:18;102152.55;;;13.71;64.78
65659;BME280;60181;53.258;6.932;2022-12-05T04:34:02;102154.89;;;13.70;64.73
65659;BME280;60181;53.258;6.932;2022-12-05T04:38:14;102156.70;;;13.68;64.90
65659;BME280;60181;53.258;6.932;2022-12-05T04:42:40;102158.69;;;13.66;64.75
65659;BME280;60181;53.258;6.932;2022-12-05T04:47:08;102159.30;;;13.64;64.85
65659;BME280;60181;53.258;6.932;2022-12-05T04:51:36;102161.32;;;13.64;64.59
65659;BME280;60181;53.258;6.932;2022-12-05T04:56:04;102163.34;;;13.63;64.75
65659;BME280;60181;53.258;6.932;2022-12-05T05:00:33;102164.86;;;13.61;64.87
65659;BME280;60181;53.258;6.932;2022-12-05T05:05:00;102165.97;;;13.60;64.75
65659;BME280;60181;53.258;6.932;2022-12-05T05:09:28;102166.27;;;13.59;64.59
65659;BME280;60181;53.258;6.932;2022-12-05T05:13:56;102166.42;;;13.58;64.90
65659;BME280;60181;53.258;6.932;2022-12-05T05:18:24;102166.26;;;13.57;64.93
65659;BME280;60181;53.258;6.932;2022-12-05T05:22:53;102166.83;;;13.56;64.86
65659;BME280;60181;53.258;6.932;2022-12-05T05:27:20;102168.19;;;13.56;64.75
65659;BME280;60181;53.258;6.932;2022-12-05T05:31:48;102169.50;;;13.55;64.69
65659;BME280;60181;53.258;6.932;2022-12-05T05:36:16;102170.70;;;13.54;64.75
65659;BME280;60181;53.258;6.932;2022-12-05T05:40:44;102171.15;;;13.54;64.63
65659;BME280;60181;53.258;6.932;2022-12-05T05:45:12;102172.14;;;13.54;64.49
65659;BME280;60181;53.258;6.932;2022-12-05T05:49:40;102173.67;;;13.55;64.33
65659;BME280;60181;53.258;6.932;2022-12-05T05:54:08;102174.24;;;13.56;64.23
65659;BME280;60181;53.258;6.932;2022-12-05T05:58:36;102175.80;;;13.58;64.16
65659;BME280;60181;53.258;6.932;2022-12-05T06:03:04;102175.27;;;13.60;64.28
65659;BME280;60181;53.258;6.932;2022-12-05T06:07:32;102174.73;;;13.61;64.26
65659;BME280;60181;53.258;6.932;2022-12-05T06:12:00;102173.46;;;13.62;64.31
65659;BME280;60181;53.258;6.932;2022-12-05T06:16:28;102171.48;;;13.63;64.32
65659;BME280;60181;53.258;6.932;2022-12-05T06:20:56;102170.62;;;13.63;64.32
65659;BME280;60181;53.258;6.932;2022-12-05T06:25:24;102170.87;;;13.64;64.39
65659;BME280;60181;53.258;6.932;2022-12-05T06:29:52;102171.94;;;13.64;64.38
65659;BME280;60181;53.258;6.932;2022-12-05T06:34:20;102173.21;;;13.64;64.43
65659;BME280;60181;53.258;6.932;2022-12-05T06:38:48;102174.53;;;13.64;64.38
65659;BME280;60181;53.258;6.932;2022-12-05T06:43:16;102176.88;;;13.64;64.60
65659;BME280;60181;53.258;6.932;2022-12-05T06:47:44;102177.62;;;13.63;64.83
65659;BME280;60181;53.258;6.932;2022-12-05T06:52:12;102178.33;;;13.63;64.52
65659;BME280;60181;53.258;6.932;2022-12-05T06:56:40;102179.80;;;13.63;64.34
65659;BME280;60181;53.258;6.932;2022-12-05T07:01:11;102181.08;;;13.63;64.36
65659;BME280;60181;53.258;6.932;2022-12-05T07:05:36;102181.56;;;13.63;64.38
65659;BME280;60181;53.258;6.932;2022-12-05T07:10:04;102181.45;;;13.63;64.32
65659;BME280;60181;53.258;6.932;2022-12-05T07:14:32;102180.80;;;13.63;64.28
65659;BME280;60181;53.258;6.932;2022-12-05T07:19:00;102180.63;;;13.63;64.28
65659;BME280;60181;53.258;6.932;2022-12-05T07:23:28;102181.13;;;13.63;64.28
65659;BME280;60181;53.258;6.932;2022-12-05T07:27:56;102180.30;;;13.62;64.31
65659;BME280;60181;53.258;6.932;2022-12-05T07:32:24;102179.63;;;13.62;64.25
65659;BME280;60181;53.258;6.932;2022-12-05T07:36:52;102179.47;;;13.60;65.95
65659;BME280;60181;53.258;6.932;2022-12-05T07:41:27;102178.03;;;13.59;65.27
65659;BME280;60181;53.258;6.932;2022-12-05T07:45:48;102176.05;;;13.59;64.32
65659;BME280;60181;53.258;6.932;2022-12-05T07:50:16;102175.44;;;13.58;64.88
65659;BME280;60181;53.258;6.932;2022-12-05T07:54:44;102175.02;;;13.58;64.24
65659;BME280;60181;53.258;6.932;2022-12-05T07:59:12;102176.01;;;13.58;64.27
65659;BME280;60181;53.258;6.932;2022-12-05T08:03:40;102177.25;;;13.57;64.96
65659;BME280;60181;53.258;6.932;2022-12-05T08:08:08;102177.57;;;13.57;64.43
65659;BME280;60181;53.258;6.932;2022-12-05T08:12:36;102177.74;;;13.58;64.67
65659;BME280;60181;53.258;6.932;2022-12-05T08:17:04;102177.00;;;13.60;66.56
65659;BME280;60181;53.258;6.932;2022-12-05T08:21:32;102175.19;;;13.64;67.31
65659;BME280;60181;53.258;6.932;2022-12-05T08:26:03;102174.98;;;13.70;65.92
65659;BME280;60181;53.258;6.932;2022-12-05T08:30:28;102175.02;;;13.76;64.05
65659;BME280;60181;53.258;6.932;2022-12-05T08:34:56;102175.43;;;13.82;64.18
65659;BME280;60181;53.258;6.932;2022-12-05T08:39:23;102177.36;;;13.88;64.03
65659;BME280;60181;53.258;6.932;2022-12-05T08:43:51;102179.38;;;13.94;64.22
65659;BME280;60181;53.258;6.932;2022-12-05T08:48:20;102183.29;;;14.00;64.14
65659;BME280;60181;53.258;6.932;2022-12-05T08:52:47;102186.04;;;14.05;64.12
65659;BME280;60181;53.258;6.932;2022-12-05T08:57:15;102188.05;;;14.10;63.76
65659;BME280;60181;53.258;6.932;2022-12-05T09:01:43;102189.81;;;14.16;63.59
65659;BME280;60181;53.258;6.932;2022-12-05T09:06:12;102191.54;;;14.16;63.86
65659;BME280;60181;53.258;6.932;2022-12-05T09:10:39;102194.02;;;14.13;63.79
65659;BME280;60181;53.258;6.932;2022-12-05T09:15:09;102195.59;;;14.09;63.91
65659;BME280;60181;53.258;6.932;2022-12-05T09:19:35;102197.32;;;14.05;63.94
65659;BME280;60181;53.258;6.932;2022-12-05T09:24:03;102199.88;;;14.00;63.96
65659;BME280;60181;53.258;6.932;2022-12-05T09:28:32;102202.15;;;13.96;63.98
65659;BME280;60181;53.258;6.932;2022-12-05T09:32:59;102204.13;;;13.93;63.96
65659;BME280;60181;53.258;6.932;2022-12-05T09:37:27;102207.17;;;13.90;64.00
65659;BME280;60181;53.258;6.932;2022-12-05T09:46:28;102209.33;;;13.84;64.05
65659;BME280;60181;53.258;6.932;2022-12-05T09:50:53;102209.74;;;13.82;64.03
65659;BME280;60181;53.258;6.932;2022-12-05T09:55:20;102210.52;;;13.80;64.09
65659;BME280;60181;53.258;6.932;2022-12-05T09:59:47;102212.74;;;13.78;64.09
65659;BME280;60181;53.258;6.932;2022-12-05T10:13:22;102208.09;;;13.74;64.09
65659;BME280;60181;53.258;6.932;2022-12-05T10:17:40;102206.23;;;13.73;64.10
65659;BME280;60181;53.258;6.932;2022-12-05T10:22:12;102203.48;;;13.72;64.09
65659;BME280;60181;53.258;6.932;2022-12-05T10:26:36;102201.54;;;13.72;64.11
65659;BME280;60181;53.258;6.932;2022-12-05T10:31:04;102200.55;;;13.71;64.13
65659;BME280;60181;53.258;6.932;2022-12-05T10:35:33;102198.94;;;13.70;64.12
65659;BME280;60181;53.258;6.932;2022-12-05T10:39:59;102197.63;;;13.70;64.15
65659;BME280;60181;53.258;6.932;2022-12-05T10:44:27;102195.61;;;13.69;64.17
65659;BME280;60181;53.258;6.932;2022-12-05T10:48:55;102193.22;;;13.69;64.22
65659;BME280;60181;53.258;6.932;2022-12-05T10:53:25;102191.83;;;13.69;64.23
65659;BME280;60181;53.258;6.932;2022-12-05T10:57:52;102190.46;;;13.70;64.90
65659;BME280;60181;53.258;6.932;2022-12-05T11:02:21;102188.83;;;13.71;64.74
65659;BME280;60181;53.258;6.932;2022-12-05T11:06:49;102187.50;;;13.71;64.77
65659;BME280;60181;53.258;6.932;2022-12-05T11:11:17;102185.52;;;13.70;64.70
65659;BME280;60181;53.258;6.932;2022-12-05T11:15:44;102183.67;;;13.69;64.68
65659;BME280;60181;53.258;6.932;2022-12-05T11:24:39;102179.19;;;13.68;64.62
65659;BME280;60181;53.258;6.932;2022-12-05T11:29:26;102175.94;;;13.67;64.67
65659;BME280;60181;53.258;6.932;2022-12-05T11:33:35;102173.79;;;13.67;64.70
65659;BME280;60181;53.258;6.932;2022-12-05T11:38:04;102170.65;;;13.66;64.64
65659;BME280;60181;53.258;6.932;2022-12-05T12:00:24;102158.26;;;13.65;64.67
65659;BME280;60181;53.258;6.932;2022-12-05T12:14:00;102149.67;;;13.65;64.67
65659;BME280;60181;53.258;6.932;2022-12-05T12:27:15;102141.76;;;13.64;64.71
65659;BME280;60181;53.258;6.932;2022-12-05T12:31:48;102138.84;;;13.64;64.72
65659;BME280;60181;53.258;6.932;2022-12-05T12:54:05;102125.62;;;13.64;64.63
65659;BME280;60181;53.258;6.932;2022-12-05T13:03:04;102120.19;;;13.64;64.62
65659;BME280;60181;53.258;6.932;2022-12-05T13:07:25;102118.95;;;13.64;64.63
65659;BME280;60181;53.258;6.932;2022-12-05T13:11:51;102117.80;;;13.64;64.64
65659;BME280;60181;53.258;6.932;2022-12-05T13:16:38;102116.65;;;13.64;64.66
65659;BME280;60181;53.258;6.932;2022-12-05T13:20:49;102115.83;;;13.65;64.64
65659;BME280;60181;53.258;6.932;2022-12-05T13:25:16;102116.11;;;13.65;64.66
65659;BME280;60181;53.258;6.932;2022-12-05T13:29:47;102115.78;;;13.65;64.67
65659;BME280;60181;53.258;6.932;2022-12-05T13:38:39;102115.95;;;13.66;64.67
65659;BME280;60181;53.258;6.932;2022-12-05T13:43:07;102116.12;;;13.66;64.72
65659;BME280;60181;53.258;6.932;2022-12-05T13:52:07;102117.10;;;13.66;64.75
65659;BME280;60181;53.258;6.932;2022-12-05T14:05:34;102116.77;;;13.65;64.73
65659;BME280;60181;53.258;6.932;2022-12-05T14:09:55;102116.77;;;13.65;64.78
65659;BME280;60181;53.258;6.932;2022-12-05T14:19:00;102116.49;;;13.65;64.81
65659;BME280;60181;53.258;6.932;2022-12-05T14:23:29;102116.00;;;13.65;64.79
65659;BME280;60181;53.258;6.932;2022-12-05T14:27:50;102116.07;;;13.66;64.75
65659;BME280;60181;53.258;6.932;2022-12-05T14:32:27;102116.03;;;13.68;64.79
65659;BME280;60181;53.258;6.932;2022-12-05T14:41:15;102116.52;;;13.70;64.76
65659;BME280;60181;53.258;6.932;2022-12-05T14:45:40;102116.94;;;13.70;64.76
65659;BME280;60181;53.258;6.932;2022-12-05T14:54:35;102117.39;;;13.72;64.77
65659;BME280;60181;53.258;6.932;2022-12-05T14:59:04;102119.73;;;13.72;64.74
65659;BME280;60181;53.258;6.932;2022-12-05T15:03:32;102121.79;;;13.72;64.76
65659;BME280;60181;53.258;6.932;2022-12-05T15:07:59;102122.86;;;13.73;64.80
65659;BME280;60181;53.258;6.932;2022-12-05T15:12:43;102124.10;;;13.72;64.99
65659;BME280;60181;53.258;6.932;2022-12-05T15:16:55;102126.08;;;13.72;64.87
65659;BME280;60181;53.258;6.932;2022-12-05T15:21:35;102128.74;;;13.73;64.81
65659;BME280;60181;53.258;6.932;2022-12-05T15:25:51;102130.97;;;13.73;64.78
65659;BME280;60181;53.258;6.932;2022-12-05T15:30:19;102134.27;;;13.73;64.79
65659;BME280;60181;53.258;6.932;2022-12-05T15:34:59;102136.56;;;13.73;64.82
65659;BME280;60181;53.258;6.932;2022-12-05T15:39:24;102139.12;;;13.73;64.77
65659;BME280;60181;53.258;6.932;2022-12-05T15:43:43;102140.28;;;13.73;64.77
65659;BME280;60181;53.258;6.932;2022-12-05T15:48:11;102142.42;;;13.73;64.79
65659;BME280;60181;53.258;6.932;2022-12-05T15:52:40;102144.56;;;13.73;64.78
65659;BME280;60181;53.258;6.932;2022-12-05T15:57:17;102145.29;;;13.74;64.78
65659;BME280;60181;53.258;6.932;2022-12-05T16:01:38;102147.03;;;13.74;64.79
65659;BME280;60181;53.258;6.932;2022-12-05T16:06:03;102148.19;;;13.74;64.78
65659;BME280;60181;53.258;6.932;2022-12-05T16:10:31;102148.30;;;13.74;64.80
65659;BME280;60181;53.258;6.932;2022-12-05T16:15:00;102148.55;;;13.74;64.80
65659;BME280;60181;53.258;6.932;2022-12-05T16:19:27;102148.72;;;13.74;64.81
65659;BME280;60181;53.258;6.932;2022-12-05T16:28:23;102149.16;;;13.75;64.84
65659;BME280;60181;53.258;6.932;2022-12-05T16:32:58;102149.91;;;13.75;64.87
65659;BME280;60181;53.258;6.932;2022-12-05T16:37:22;102151.06;;;13.75;64.92
65659;BME280;60181;53.258;6.932;2022-12-05T16:41:47;102152.79;;;13.76;64.95
65659;BME280;60181;53.258;6.932;2022-12-05T16:50:43;102153.69;;;13.76;64.98
65659;BME280;60181;53.258;6.932;2022-12-05T16:55:11;102154.52;;;13.76;65.02
65659;BME280;60181;53.258;6.932;2022-12-05T16:59:39;102154.19;;;13.76;65.04
65659;BME280;60181;53.258;6.932;2022-12-05T17:04:08;102154.47;;;13.76;65.04
65659;BME280;60181;53.258;6.932;2022-12-05T17:08:35;102154.97;;;13.76;65.06
65659;BME280;60181;53.258;6.932;2022-12-05T17:13:03;102156.04;;;13.77;65.08
65659;BME280;60181;53.258;6.932;2022-12-05T17:17:31;102157.19;;;13.77;65.07
65659;BME280;60181;53.258;6.932;2022-12-05T17:21:59;102157.85;;;13.77;65.07
65659;BME280;60181;53.258;6.932;2022-12-05T17:26:27;102158.18;;;13.77;65.08
65659;BME280;60181;53.258;6.932;2022-12-05T17:30:55;102158.43;;;13.77;65.10
65659;BME280;60181;53.258;6.932;2022-12-05T17:35:23;102159.17;;;13.77;65.09
65659;BME280;60181;53.258;6.932;2022-12-05T17:39:51;102160.08;;;13.77;65.18
65659;BME280;60181;53.258;6.932;2022-12-05T17:44:19;102161.93;;;13.78;65.20
65659;BME280;60181;53.258;6.932;2022-12-05T17:48:47;102164.08;;;13.78;65.17
65659;BME280;60181;53.258;6.932;2022-12-05T17:53:17;102166.42;;;13.79;65.21
65659;BME280;60181;53.258;6.932;2022-12-05T17:57:43;102168.14;;;13.79;65.22
65659;BME280;60181;53.258;6.932;2022-12-05T18:02:11;102170.37;;;13.79;65.27
65659;BME280;60181;53.258;6.932;2022-12-05T18:06:39;102172.96;;;13.80;65.27
65659;BME280;60181;53.258;6.932;2022-12-05T18:11:07;102174.86;;;13.80;65.26
65659;BME280;60181;53.258;6.932;2022-12-05T18:15:35;102176.50;;;13.80;65.28
65659;BME280;60181;53.258;6.932;2022-12-05T18:20:03;102178.23;;;13.80;65.25
65659;BME280;60181;53.258;6.932;2022-12-05T18:24:31;102180.95;;;13.80;65.28
65659;BME280;60181;53.258;6.932;2022-12-05T18:28:59;102184.28;;;13.81;65.25
65659;BME280;60181;53.258;6.932;2022-12-05T18:33:27;102187.08;;;13.81;65.27
65659;BME280;60181;53.258;6.932;2022-12-05T18:37:55;102190.30;;;13.81;65.25
65659;BME280;60181;53.258;6.932;2022-12-05T18:42:23;102192.11;;;13.81;65.28
65659;BME280;60181;53.258;6.932;2022-12-05T18:46:51;102193.67;;;13.81;65.27
65659;BME280;60181;53.258;6.932;2022-12-05T18:51:20;102195.65;;;13.81;65.28
65659;BME280;60181;53.258;6.932;2022-12-05T18:55:47;102196.97;;;13.81;65.27
65659;BME280;60181;53.258;6.932;2022-12-05T19:00:15;102197.47;;;13.81;65.30
65659;BME280;60181;53.258;6.932;2022-12-05T19:04:43;102198.13;;;13.81;65.30
65659;BME280;60181;53.258;6.932;2022-12-05T19:09:11;102199.36;;;13.82;65.27
65659;BME280;60181;53.258;6.932;2022-12-05T19:13:39;102200.51;;;13.82;65.34
65659;BME280;60181;53.258;6.932;2022-12-05T19:18:07;102200.96;;;13.82;65.31
65659;BME280;60181;53.258;6.932;2022-12-05T19:22:35;102201.70;;;13.82;65.34
65659;BME280;60181;53.258;6.932;2022-12-05T19:27:03;102203.85;;;13.83;65.32
65659;BME280;60181;53.258;6.932;2022-12-05T19:31:31;102205.50;;;13.83;65.33
65659;BME280;60181;53.258;6.932;2022-12-05T19:36:02;102207.75;;;13.83;65.30
65659;BME280;60181;53.258;6.932;2022-12-05T19:40:27;102209.32;;;13.83;65.30
65659;BME280;60181;53.258;6.932;2022-12-05T19:44:55;102210.31;;;13.84;65.31
65659;BME280;60181;53.258;6.932;2022-12-05T19:49:23;102209.16;;;13.84;65.32
65659;BME280;60181;53.258;6.932;2022-12-05T19:53:51;102207.68;;;13.84;65.30
65659;BME280;60181;53.258;6.932;2022-12-05T19:58:18;102207.42;;;13.90;66.01
65659;BME280;60181;53.258;6.932;2022-12-05T20:02:46;102205.84;;;14.08;66.34
65659;BME280;60181;53.258;6.932;2022-12-05T20:07:15;102205.25;;;14.24;66.64
65659;BME280;60181;53.258;6.932;2022-12-05T20:11:43;102206.37;;;14.30;66.10
65659;BME280;60181;53.258;6.932;2022-12-05T20:16:12;102206.59;;;14.29;65.83
65659;BME280;60181;53.258;6.932;2022-12-05T20:20:39;102207.22;;;14.26;65.97
65659;BME280;60181;53.258;6.932;2022-12-05T20:25:07;102207.26;;;14.23;66.01
65659;BME280;60181;53.258;6.932;2022-12-05T20:29:34;102208.06;;;14.19;65.98
65659;BME280;60181;53.258;6.932;2022-12-05T20:34:03;102207.78;;;14.16;65.99
65659;BME280;60181;53.258;6.932;2022-12-05T20:38:31;102207.76;;;14.13;65.88
65659;BME280;60181;53.258;6.932;2022-12-05T20:42:58;102207.36;;;14.11;65.88
65659;BME280;60181;53.258;6.932;2022-12-05T20:47:26;102206.62;;;14.09;65.83
65659;BME280;60181;53.258;6.932;2022-12-05T20:51:54;102204.94;;;14.08;65.86
65659;BME280;60181;53.258;6.932;2022-12-05T20:56:23;102204.13;;;14.06;65.80
65659;BME280;60181;53.258;6.932;2022-12-05T21:00:55;102203.45;;;14.05;65.83
65659;BME280;60181;53.258;6.932;2022-12-05T21:05:18;102204.46;;;14.04;65.98
65659;BME280;60181;53.258;6.932;2022-12-05T21:09:46;102205.08;;;14.03;66.01
65659;BME280;60181;53.258;6.932;2022-12-05T21:14:14;102205.72;;;14.02;66.03
65659;BME280;60181;53.258;6.932;2022-12-05T21:18:43;102205.94;;;14.01;66.01
65659;BME280;60181;53.258;6.932;2022-12-05T21:23:10;102206.64;;;14.00;65.99
65659;BME280;60181;53.258;6.932;2022-12-05T21:27:38;102206.19;;;14.00;65.96
65659;BME280;60181;53.258;6.932;2022-12-05T21:32:06;102205.03;;;13.99;65.92
65659;BME280;60181;53.258;6.932;2022-12-05T21:36:35;102203.52;;;13.98;65.80
65659;BME280;60181;53.258;6.932;2022-12-05T21:41:03;102202.84;;;13.98;65.77
65659;BME280;60181;53.258;6.932;2022-12-05T21:45:30;102200.37;;;13.97;65.73
65659;BME280;60181;53.258;6.932;2022-12-05T21:49:58;102198.74;;;13.98;66.55
65659;BME280;60181;53.258;6.932;2022-12-05T21:54:26;102197.82;;;14.00;65.77
65659;BME280;60181;53.258;6.932;2022-12-05T21:58:54;102196.30;;;14.01;65.95
65659;BME280;60181;53.258;6.932;2022-12-05T22:03:22;102194.53;;;14.02;65.95
65659;BME280;60181;53.258;6.932;2022-12-05T22:07:50;102194.23;;;14.03;66.06
65659;BME280;60181;53.258;6.932;2022-12-05T22:12:18;102194.02;;;14.04;66.17
65659;BME280;60181;53.258;6.932;2022-12-05T22:16:46;102194.23;;;14.05;66.30
65659;BME280;60181;53.258;6.932;2022-12-05T22:21:15;102192.35;;;14.06;66.33
65659;BME280;60181;53.258;6.932;2022-12-05T22:25:42;102190.23;;;14.07;66.47
65659;BME280;60181;53.258;6.932;2022-12-05T22:30:11;102186.77;;;14.07;66.44
65659;BME280;60181;53.258;6.932;2022-12-05T22:34:38;102183.40;;;14.07;66.46
65659;BME280;60181;53.258;6.932;2022-12-05T22:39:06;102181.37;;;14.08;66.55
65659;BME280;60181;53.258;6.932;2022-12-05T22:43:35;102180.88;;;14.08;66.70
65659;BME280;60181;53.258;6.932;2022-12-05T22:48:03;102180.55;;;14.08;66.74
65659;BME280;60181;53.258;6.932;2022-12-05T22:52:30;102179.28;;;14.07;66.70
65659;BME280;60181;53.258;6.932;2022-12-05T22:56:58;102177.87;;;14.07;66.80
65659;BME280;60181;53.258;6.932;2022-12-05T23:01:30;102177.04;;;14.07;66.86
65659;BME280;60181;53.258;6.932;2022-12-05T23:05:54;102176.97;;;14.07;66.93
65659;BME280;60181;53.258;6.932;2022-12-05T23:10:22;102174.91;;;14.07;66.94
65659;BME280;60181;53.258;6.932;2022-12-05T23:14:50;102172.36;;;14.07;66.96
65659;BME280;60181;53.258;6.932;2022-12-05T23:19:18;102169.39;;;14.07;66.96
65659;BME280;60181;53.258;6.932;2022-12-05T23:23:47;102167.08;;;14.07;67.02
65659;BME280;60181;53.258;6.932;2022-12-05T23:28:14;102164.53;;;14.07;67.02
65659;BME280;60181;53.258;6.932;2022-12-05T23:32:42;102162.55;;;14.07;67.07
65659;BME280;60181;53.258;6.932;2022-12-05T23:37:10;102160.58;;;14.07;67.08
65659;BME280;60181;53.258;6.932;2022-12-05T23:41:38;102157.78;;;14.07;67.21
65659;BME280;60181;53.258;6.932;2022-12-05T23:46:07;102155.72;;;14.07;67.18
65659;BME280;60181;53.258;6.932;2022-12-05T23:50:34;102154.49;;;14.07;67.24
65659;BME280;60181;53.258;6.932;2022-12-05T23:55:02;102154.57;;;14.07;67.39
65659;BME280;60181;53.258;6.932;2022-12-05T23:59:30;102154.40;;;14.07;67.71
